Time;durP1;ratioP1;P1;durP2;ratioP2;P2;SDS_P1;SDS_P2;PMS_P1;PMS_P2;Temp;Humidity;BMP_temperature;BMP_pressure;BME280_temperature;BME280_humidity;BME280_pressure;Samples;Min_cycle;Max_cycle;Signal;HPM_P1;HPM_P2
2021/03/07 00:01:42;;;;;;;35.90;18.23;;;;;;;-1.57;67.91;100054.11;123774;1102;64882;-75
2021/03/07 00:04:09;;;;;;;31.90;17.53;;;;;;;-1.58;68.08;100053.25;123787;1102;64937;-76
2021/03/07 00:06:35;;;;;;;32.93;18.50;;;;;;;-1.58;67.69;100055.86;123381;1102;65349;-76
2021/03/07 00:09:01;;;;;;;43.17;18.83;;;;;;;-1.59;67.77;100061.94;123388;1106;64914;-79
2021/03/07 00:11:28;;;;;;;34.67;18.37;;;;;;;-1.61;68.26;100065.42;123825;1102;64902;-76
2021/03/07 00:13:54;;;;;;;35.17;19.37;;;;;;;-1.61;67.91;100058.45;123449;1100;64959;-75
2021/03/07 00:16:20;;;;;;;33.03;18.93;;;;;;;-1.59;67.87;100051.48;123460;1102;64994;-75
2021/03/07 00:18:47;;;;;;;31.53;17.47;;;;;;;-1.58;68.60;100044.51;123437;1102;65019;-76
2021/03/07 00:21:15;;;;;;;36.15;19.10;;;;;;;-1.58;68.55;100044.51;123744;1102;64844;-74
2021/03/07 00:23:42;;;;;;;36.83;19.93;;;;;;;-1.59;68.41;100041.03;123413;1102;64975;-74
2021/03/07 00:26:08;;;;;;;39.20;20.70;;;;;;;-1.60;68.83;100036.69;123792;1102;64920;-75
2021/03/07 00:28:35;;;;;;;36.43;20.77;;;;;;;-1.61;68.08;100031.45;123788;1102;64898;-75
2021/03/07 00:31:01;;;;;;;39.77;21.07;;;;;;;-1.60;68.41;100030.59;123788;1102;64905;-74
2021/03/07 00:33:28;;;;;;;41.90;22.27;;;;;;;-1.61;68.85;100032.31;123805;1102;65014;-75
2021/03/07 00:35:54;;;;;;;39.60;21.83;;;;;;;-1.61;68.77;100024.47;123767;1102;64880;-76
2021/03/07 00:38:20;;;;;;;35.43;21.03;;;;;;;-1.62;68.29;100021.88;123527;1102;64875;-75
2021/03/07 00:40:47;;;;;;;35.63;19.30;;;;;;;-1.63;68.09;100023.63;123763;1102;64934;-75
2021/03/07 00:43:13;;;;;;;28.20;16.53;;;;;;;-1.64;68.19;100013.16;123769;1102;64901;-75
2021/03/07 00:45:39;;;;;;;33.02;18.98;;;;;;;-1.62;68.36;100019.27;123774;1102;64997;-76
2021/03/07 00:48:06;;;;;;;33.07;17.90;;;;;;;-1.62;68.09;100019.27;123822;1102;65341;-76
2021/03/07 00:50:33;;;;;;;30.20;17.63;;;;;;;-1.64;68.29;100007.94;123844;1102;64959;-74
2021/03/07 00:52:59;;;;;;;29.55;17.00;;;;;;;-1.64;68.53;99994.87;123400;1102;64940;-75
2021/03/07 00:55:26;;;;;;;29.67;16.47;;;;;;;-1.65;68.48;99990.52;123763;1102;64908;-75
2021/03/07 00:57:52;;;;;;;27.13;16.07;;;;;;;-1.65;68.36;99985.30;123785;1102;65024;-75
2021/03/07 01:00:22;;;;;;;28.93;18.13;;;;;;;-1.65;68.16;99986.16;123804;1102;64940;-75
2021/03/07 01:02:49;;;;;;;25.93;15.57;;;;;;;-1.64;68.54;99974.83;123779;1102;65361;-75
2021/03/07 01:05:16;;;;;;;24.03;13.93;;;;;;;-1.63;68.56;99968.74;123373;1102;64915;-76
2021/03/07 01:07:43;;;;;;;26.37;15.73;;;;;;;-1.62;68.46;99962.63;123402;1102;64846;-75
2021/03/07 01:10:18;;;;;;;26.57;16.07;;;;;;;-1.63;68.69;99957.42;123405;1102;65019;-75
2021/03/07 01:12:48;;;;;;;25.45;15.60;;;;;;;-1.64;68.51;99951.30;123457;1102;65401;-75
2021/03/07 01:15:18;;;;;;;22.60;14.55;;;;;;;-1.65;68.61;99951.33;123462;1102;64975;-75
2021/03/07 01:17:44;;;;;;;23.23;13.63;;;;;;;-1.64;68.29;99948.69;123468;1102;65319;-76
2021/03/07 01:20:14;;;;;;;22.03;13.80;;;;;;;-1.62;68.80;99943.47;123782;1102;64861;-76
2021/03/07 01:22:41;;;;;;;26.47;16.20;;;;;;;-1.61;68.89;99940.84;123443;1102;64918;-76
2021/03/07 01:25:08;;;;;;;23.83;14.37;;;;;;;-1.61;68.71;99934.75;123784;1102;65289;-75
2021/03/07 01:27:35;;;;;;;19.93;13.90;;;;;;;-1.62;68.58;99933.02;123780;1102;64895;-76
2021/03/07 01:30:06;;;;;;;24.33;15.47;;;;;;;-1.64;68.50;99925.17;123701;1101;64902;-76
2021/03/07 01:32:33;;;;;;;25.43;13.80;;;;;;;-1.65;68.56;99925.19;123857;1102;64941;-74
2021/03/07 01:34:59;;;;;;;23.67;14.00;;;;;;;-1.65;68.63;99922.58;123771;1102;64888;-75
2021/03/07 01:37:26;;;;;;;22.17;14.13;;;;;;;-1.66;68.29;99921.72;123412;1102;64918;-76
2021/03/07 01:39:53;;;;;;;24.83;14.17;;;;;;;-1.64;68.40;99917.33;123805;1101;64898;-76
2021/03/07 01:42:20;;;;;;;23.60;13.77;;;;;;;-1.65;69.07;99907.77;123795;1102;64941;-76
2021/03/07 01:44:48;;;;;;;19.90;11.97;;;;;;;-1.63;68.59;99915.61;123458;1102;64923;-76
2021/03/07 01:47:25;;;;;;;18.53;12.73;;;;;;;-1.63;68.14;99908.63;123756;1102;65007;-77
2021/03/07 01:49:51;;;;;;;20.83;13.43;;;;;;;-1.62;68.26;99905.13;123770;1102;64997;-75
2021/03/07 01:52:18;;;;;;;21.10;12.37;;;;;;;-1.61;68.36;99896.41;123435;1102;64930;-75
2021/03/07 01:54:44;;;;;;;22.30;13.32;;;;;;;-1.62;68.82;99891.20;123781;1102;65372;-76
2021/03/07 01:57:13;;;;;;;21.07;12.90;;;;;;;-1.64;68.99;99891.19;123378;1102;64918;-75
2021/03/07 01:59:42;;;;;;;19.75;11.85;;;;;;;-1.66;68.29;99879.90;123755;1102;64908;-78
2021/03/07 02:02:08;;;;;;;21.45;12.30;;;;;;;-1.65;69.07;99878.15;123519;1102;64896;-78
2021/03/07 02:04:35;;;;;;;17.17;11.97;;;;;;;-1.66;68.12;99882.52;123759;1102;64939;-75
2021/03/07 02:07:01;;;;;;;22.65;13.50;;;;;;;-1.66;68.57;99882.52;123797;1101;64850;-75
2021/03/07 02:09:28;;;;;;;15.93;11.13;;;;;;;-1.67;68.94;99870.30;123778;1102;64905;-75
2021/03/07 02:11:55;;;;;;;17.33;11.60;;;;;;;-1.67;68.83;99874.67;123392;1102;64940;-76
2021/03/07 02:14:24;;;;;;;19.33;11.00;;;;;;;-1.67;68.88;99869.44;123806;1102;64940;-76
2021/03/07 02:16:50;;;;;;;19.98;11.28;;;;;;;-1.71;68.71;99862.47;123426;1102;64937;-76
2021/03/07 02:19:20;;;;;;;17.23;9.63;;;;;;;-1.71;68.72;99860.75;123759;1102;64889;-76
2021/03/07 02:21:49;;;;;;;;;;;;;;;-1.69;68.80;99860.73;123820;1102;64902;-75
2021/03/07 02:24:16;;;;;;;13.27;9.70;;;;;;;-1.71;68.60;99859.86;123738;1102;65020;-74
2021/03/07 02:26:48;;;;;;;14.77;9.83;;;;;;;-1.73;68.01;99864.25;123382;1102;64931;-75
2021/03/07 02:29:17;;;;;;;16.77;10.53;;;;;;;-1.74;68.37;99859.88;123373;1102;64891;-75
2021/03/07 02:31:51;;;;;;;17.17;11.47;;;;;;;-1.77;68.93;99856.39;123796;1102;64902;-75
2021/03/07 02:34:26;;;;;;;20.23;11.37;;;;;;;-1.78;68.98;99853.80;123392;1102;64902;-75
2021/03/07 02:36:59;;;;;;;15.10;10.20;;;;;;;-1.79;68.94;99850.33;123370;1102;65007;-75
2021/03/07 02:39:30;;;;;;;17.43;11.67;;;;;;;-1.78;68.82;99849.44;123391;1102;64990;-76
2021/03/07 02:42:03;;;;;;;13.90;10.90;;;;;;;-1.78;68.89;99849.44;123340;1102;64889;-75
2021/03/07 02:44:34;;;;;;;15.10;10.25;;;;;;;-1.77;68.16;99843.32;123346;1102;64914;-75
2021/03/07 02:47:02;;;;;;;15.93;10.90;;;;;;;-1.76;68.96;99841.61;123418;1102;64908;-76
2021/03/07 02:49:31;;;;;;;14.13;10.23;;;;;;;-1.78;68.44;99848.58;123324;1105;64994;-76
2021/03/07 02:51:59;;;;;;;;;;;;;;;-1.78;68.30;99846.82;123424;1102;64889;-75
2021/03/07 02:54:27;;;;;;;24.30;12.43;;;;;;;-1.79;69.06;99846.81;123743;1101;64882;-76
2021/03/07 02:56:54;;;;;;;17.83;12.20;;;;;;;-1.80;68.83;99848.56;123803;1102;64851;-75
2021/03/07 02:59:27;;;;;;;17.63;11.10;;;;;;;-1.79;68.87;99849.42;123412;1102;64912;-75
2021/03/07 03:02:01;;;;;;;18.75;10.55;;;;;;;-1.80;68.21;99838.11;123393;1102;64917;-75
2021/03/07 03:04:30;;;;;;;15.67;10.70;;;;;;;-1.80;68.96;99843.34;123405;1102;64921;-78
2021/03/07 03:06:57;;;;;;;15.43;11.37;;;;;;;-1.82;68.98;99838.99;123375;1102;64937;-76
2021/03/07 03:09:26;;;;;;;17.80;11.00;;;;;;;-1.83;68.58;99835.52;123403;1102;65017;-75
2021/03/07 03:11:56;;;;;;;16.30;10.80;;;;;;;-1.85;68.25;99833.78;123409;1102;65001;-75
2021/03/07 03:14:24;;;;;;;17.07;11.20;;;;;;;-1.87;68.46;99836.42;123785;1102;65023;-75
2021/03/07 03:16:57;;;;;;;16.10;11.90;;;;;;;-1.88;68.54;99826.82;123812;1102;64911;-75
2021/03/07 03:19:26;;;;;;;14.70;11.27;;;;;;;-1.88;69.15;99828.57;123345;1102;64912;-75
2021/03/07 03:21:55;;;;;;;18.70;11.00;;;;;;;-1.89;68.51;99822.48;123434;1102;64924;-75
2021/03/07 03:24:22;;;;;;;18.67;11.87;;;;;;;-1.91;68.78;99825.97;123454;1101;64832;-75
2021/03/07 03:26:49;;;;;;;18.47;12.23;;;;;;;-1.90;68.62;99831.17;123381;1101;65033;-76
2021/03/07 03:29:16;;;;;;;24.93;14.87;;;;;;;-1.91;68.42;99826.84;123385;1102;65298;-75
2021/03/07 03:31:43;;;;;;;18.20;11.63;;;;;;;-1.90;68.66;99830.31;123383;1102;64895;-75
2021/03/07 03:34:09;;;;;;;17.13;11.93;;;;;;;-1.91;68.70;99831.20;123356;1102;64905;-75
2021/03/07 03:36:38;;;;;;;16.67;11.93;;;;;;;-1.93;69.04;99831.19;123334;1102;64831;-76
2021/03/07 03:39:18;;;;;;;15.87;10.57;;;;;;;-1.95;69.41;99835.54;123444;1102;64956;-75
2021/03/07 03:41:48;;;;;;;14.70;11.03;;;;;;;-1.93;68.74;99832.94;123781;1102;65137;-76
2021/03/07 03:44:19;;;;;;;16.90;12.63;;;;;;;-1.92;69.25;99840.78;123371;1102;64892;-76
2021/03/07 03:46:49;;;;;;;16.57;11.80;;;;;;;-1.92;69.51;99837.28;123423;1102;65378;-76
2021/03/07 03:49:33;;;;;;;;;;;;;;;-1.92;69.00;99832.05;123417;1102;64910;-75
2021/03/07 03:52:05;;;;;;;14.73;11.60;;;;;;;-1.91;69.52;99836.42;123754;1102;64905;-76
2021/03/07 03:55:07;;;;;;;16.00;10.47;;;;;;;-1.91;69.26;99833.81;123441;1102;64841;-75
2021/03/07 03:57:35;;;;;;;18.67;11.27;;;;;;;-1.92;69.47;99832.05;123309;1102;64834;-75
2021/03/07 04:00:07;;;;;;;16.47;10.77;;;;;;;-1.90;69.61;99838.15;123413;1101;64949;-75
2021/03/07 04:02:35;;;;;;;20.87;12.23;;;;;;;-1.90;69.90;99832.92;123795;1102;64905;-75
2021/03/07 04:05:06;;;;;;;47.70;24.70;;;;;;;-1.91;68.96;99828.59;123328;1102;64929;-76
2021/03/07 04:07:34;;;;;;;28.03;15.83;;;;;;;-1.93;69.19;99831.19;123402;1102;64867;-76
2021/03/07 04:10:01;;;;;;;21.97;14.13;;;;;;;-1.94;70.06;99825.98;123401;1102;64905;-75
2021/03/07 04:12:28;;;;;;;21.10;12.60;;;;;;;-1.95;70.09;99830.31;123446;1102;64910;-75
2021/03/07 04:14:56;;;;;;;20.97;13.37;;;;;;;-1.94;69.35;99825.98;123377;1102;64830;-75
2021/03/07 04:17:24;;;;;;;16.53;11.53;;;;;;;-1.97;69.97;99823.36;123394;1102;64902;-75
2021/03/07 04:19:54;;;;;;;17.80;11.83;;;;;;;-1.97;69.51;99821.64;123387;1102;65032;-75
2021/03/07 04:22:21;;;;;;;21.20;14.85;;;;;;;-1.95;70.17;99816.39;123416;1102;65005;-76
2021/03/07 04:24:48;;;;;;;41.00;19.47;;;;;;;-1.96;69.65;99820.76;123379;1102;64972;-75
2021/03/07 04:27:16;;;;;;;28.07;15.77;;;;;;;-1.96;69.61;99825.98;123419;1102;64947;-75
2021/03/07 04:29:44;;;;;;;19.33;13.33;;;;;;;-1.98;69.91;99822.50;123433;1102;65020;-76
2021/03/07 04:32:11;;;;;;;25.85;12.65;;;;;;;-2.00;69.81;99829.49;123438;1102;65342;-75
2021/03/07 04:34:39;;;;;;;17.23;12.10;;;;;;;-2.00;69.74;99819.05;123760;1101;65352;-75
2021/03/07 04:37:05;;;;;;;15.60;12.03;;;;;;;-2.02;69.64;99811.20;123791;1102;64869;-74
2021/03/07 04:39:32;;;;;;;19.10;12.50;;;;;;;-2.02;69.96;99811.20;123365;1102;64891;-76
2021/03/07 04:41:59;;;;;;;14.60;9.73;;;;;;;-2.02;70.20;99805.11;123386;1102;65010;-75
2021/03/07 04:44:26;;;;;;;20.53;11.97;;;;;;;-2.02;70.29;99797.28;123403;1102;64864;-75
2021/03/07 04:46:52;;;;;;;18.17;12.60;;;;;;;-2.00;69.42;99800.77;123408;1102;65346;-75
2021/03/07 04:49:18;;;;;;;17.03;11.47;;;;;;;-1.98;69.31;99796.38;123774;1102;64891;-76
2021/03/07 04:51:45;;;;;;;17.33;11.67;;;;;;;-1.95;70.08;99790.27;123423;1102;64991;-75
2021/03/07 04:54:12;;;;;;;13.00;10.77;;;;;;;-1.93;70.08;99791.14;123773;1102;65170;-75
2021/03/07 04:56:38;;;;;;;15.10;10.37;;;;;;;-1.93;69.47;99781.56;123368;1102;64966;-75
2021/03/07 04:59:04;;;;;;;17.17;12.83;;;;;;;-1.94;69.81;99778.97;123332;1102;64978;-76
2021/03/07 05:01:31;;;;;;;15.30;11.33;;;;;;;-1.95;69.64;99780.69;123350;1101;64937;-75
2021/03/07 05:03:57;;;;;;;18.27;11.80;;;;;;;-1.95;69.33;99779.83;123745;1102;64876;-77
2021/03/07 05:06:25;;;;;;;17.77;11.87;;;;;;;-1.97;69.85;99758.95;123353;1101;65393;-75
2021/03/07 05:08:52;;;;;;;19.73;12.30;;;;;;;-1.96;69.19;99765.91;123766;1102;64940;-75
2021/03/07 05:11:22;;;;;;;20.87;12.90;;;;;;;-1.96;69.91;99762.43;123378;1102;64905;-75
2021/03/07 05:13:49;;;;;;;18.45;11.50;;;;;;;-1.96;69.17;99765.04;123410;1102;65065;-74
2021/03/07 05:16:17;;;;;;;18.07;13.47;;;;;;;-1.98;69.85;99762.42;123356;1102;64905;-74
2021/03/07 05:18:44;;;;;;;18.30;12.33;;;;;;;-1.96;70.01;99760.68;123393;1102;64838;-74
2021/03/07 05:21:10;;;;;;;23.40;13.30;;;;;;;-1.92;69.35;99759.81;123375;1102;64953;-74
2021/03/07 05:23:37;;;;;;;16.70;10.73;;;;;;;-1.89;69.59;99762.40;123406;1102;64911;-75
2021/03/07 05:26:04;;;;;;;16.27;12.13;;;;;;;-1.88;69.78;99751.06;123818;1102;64994;-75
2021/03/07 05:28:30;;;;;;;18.83;11.70;;;;;;;-1.85;69.04;99745.81;123807;1102;64864;-76
2021/03/07 05:30:57;;;;;;;17.77;12.63;;;;;;;-1.84;68.89;99757.16;123395;1102;64914;-75
2021/03/07 05:33:23;;;;;;;19.30;12.87;;;;;;;-1.79;69.71;99753.66;123805;1102;65346;-76
2021/03/07 05:35:50;;;;;;;16.43;11.77;;;;;;;-1.75;69.20;99743.17;123795;1102;65013;-77
2021/03/07 05:38:17;;;;;;;18.50;11.37;;;;;;;-1.70;69.52;99754.48;123764;1102;64889;-76
2021/03/07 05:40:44;;;;;;;16.30;11.50;;;;;;;-1.67;68.72;99744.87;123837;1102;64913;-76
2021/03/07 05:43:10;;;;;;;17.60;12.27;;;;;;;-1.59;69.46;99750.91;123345;1102;65233;-75
2021/03/07 05:45:36;;;;;;;18.60;12.03;;;;;;;-1.45;69.32;99749.96;123437;1102;64904;-75
2021/03/07 05:48:03;;;;;;;18.07;12.20;;;;;;;-1.28;68.90;99747.26;123418;1102;64909;-75
2021/03/07 05:50:29;;;;;;;17.00;11.83;;;;;;;-1.15;68.83;99744.53;123807;1102;64902;-75
2021/03/07 05:52:57;;;;;;;16.43;11.40;;;;;;;-1.12;68.75;99739.28;123441;1102;64940;-75
2021/03/07 05:55:25;;;;;;;18.55;12.50;;;;;;;-1.12;68.46;99736.66;123746;1102;64893;-76
2021/03/07 05:57:56;;;;;;;17.10;11.20;;;;;;;-1.09;68.65;99742.75;123786;1102;64937;-74
2021/03/07 06:00:23;;;;;;;14.43;11.20;;;;;;;-1.04;68.28;99741.84;123766;1102;64988;-74
2021/03/07 06:02:50;;;;;;;12.10;9.75;;;;;;;-0.98;67.67;99735.69;123829;1102;64924;-75
2021/03/07 06:05:17;;;;;;;16.57;11.27;;;;;;;-0.92;68.25;99727.80;123753;1102;64940;-75
2021/03/07 06:07:46;;;;;;;15.20;10.47;;;;;;;-0.86;68.12;99735.59;123781;1102;64904;-77
2021/03/07 06:10:25;;;;;;;13.25;9.73;;;;;;;-0.78;67.04;99733.77;123492;1102;65027;-77
2021/03/07 06:13:11;;;;;;;15.30;10.73;;;;;;;-0.66;66.96;99732.77;123801;1102;64882;-76
2021/03/07 06:15:39;;;;;;;13.13;9.63;;;;;;;-0.57;67.23;99732.70;123777;1102;64840;-75
2021/03/07 06:18:22;;;;;;;15.57;10.00;;;;;;;-0.50;67.35;99734.37;123454;1102;64953;-75
2021/03/07 06:20:51;;;;;;;17.60;10.43;;;;;;;-0.40;66.66;99737.75;123752;1102;65058;-77
2021/03/07 06:23:18;;;;;;;28.00;16.33;;;;;;;-0.33;66.53;99735.95;123479;1102;64918;-76
2021/03/07 06:25:48;;;;;;;19.27;13.47;;;;;;;-0.26;66.52;99737.62;123829;1102;64895;-76
2021/03/07 06:28:30;;;;;;;14.47;10.78;;;;;;;-0.19;66.32;99731.41;123808;1102;65358;-75
2021/03/07 06:30:57;;;;;;;35.57;18.70;;;;;;;-0.09;65.92;99729.55;123785;1102;65074;-76
2021/03/07 06:33:41;;;;;;;35.73;19.67;;;;;;;-0.03;66.05;99726.84;123378;1102;64931;-75
2021/03/07 06:36:19;;;;;;;45.77;26.87;;;;;;;0.04;65.52;99723.28;123428;1105;64966;-74
2021/03/07 06:38:51;;;;;;;38.07;22.47;;;;;;;0.10;66.13;99728.43;123780;1102;64984;-75
2021/03/07 06:41:26;;;;;;;28.33;16.50;;;;;;;0.18;65.75;99725.71;123798;1102;64885;-75
2021/03/07 06:44:08;;;;;;;20.20;12.20;;;;;;;0.26;65.51;99728.23;123419;1105;65097;-75
2021/03/07 06:46:37;;;;;;;16.57;11.50;;;;;;;0.33;64.73;99732.52;123782;1102;65043;-75
2021/03/07 06:49:04;;;;;;;16.30;10.25;;;;;;;0.38;64.98;99725.45;123490;1102;64908;-75
2021/03/07 06:51:33;;;;;;;16.00;10.67;;;;;;;0.44;64.69;99733.23;123421;1102;64853;-75
2021/03/07 06:54:17;;;;;;;12.03;8.90;;;;;;;0.51;64.92;99728.78;123457;1102;64940;-75
2021/03/07 06:56:46;;;;;;;13.00;8.97;;;;;;;0.58;63.57;99728.67;123412;1102;64939;-75
2021/03/07 06:59:24;;;;;;;13.40;9.63;;;;;;;0.66;63.39;99733.81;123773;1102;65375;-75
2021/03/07 07:01:55;;;;;;;14.55;10.10;;;;;;;0.69;62.73;99727.66;123394;1102;65402;-74
2021/03/07 07:04:24;;;;;;;15.53;10.73;;;;;;;0.74;63.55;99721.44;123773;1102;64869;-76
2021/03/07 07:07:12;;;;;;;14.70;10.07;;;;;;;0.81;63.54;99723.05;123799;1102;65019;-76
2021/03/07 07:09:40;;;;;;;13.55;10.25;;;;;;;0.91;62.79;99723.78;123437;1102;64835;-74
2021/03/07 07:12:18;;;;;;;13.63;7.77;;;;;;;0.99;61.37;99716.65;123393;1102;64949;-75
2021/03/07 07:14:45;;;;;;;16.87;10.57;;;;;;;1.05;62.33;99713.95;123800;1101;64879;-75
2021/03/07 07:17:19;;;;;;;15.00;10.20;;;;;;;1.13;62.00;99715.55;123435;1102;64892;-75
2021/03/07 07:19:47;;;;;;;13.53;9.30;;;;;;;1.17;62.16;99709.38;123757;1102;64873;-76
2021/03/07 07:22:16;;;;;;;14.93;9.73;;;;;;;1.24;61.99;99714.49;123802;1102;64908;-75
2021/03/07 07:24:43;;;;;;;13.97;10.40;;;;;;;1.31;62.24;99712.61;123755;1102;64885;-75
2021/03/07 07:27:11;;;;;;;14.87;10.37;;;;;;;1.36;62.23;99708.14;123379;1102;65343;-75
2021/03/07 07:29:38;;;;;;;16.57;10.50;;;;;;;1.41;61.41;99702.81;123319;1102;64994;-75
2021/03/07 07:32:27;;;;;;;13.70;10.10;;;;;;;1.44;60.74;99702.75;123396;1102;64975;-75
2021/03/07 07:35:00;;;;;;;16.47;10.80;;;;;;;1.49;60.94;99690.40;123733;1102;64905;-76
2021/03/07 07:37:38;;;;;;;14.77;11.10;;;;;;;1.55;60.64;99690.27;123408;1102;64917;-76
2021/03/07 07:40:07;;;;;;;17.03;9.70;;;;;;;1.61;60.43;99692.80;123434;1101;64911;-75
2021/03/07 07:42:35;;;;;;;15.53;9.40;;;;;;;1.69;60.86;99684.78;123448;1102;64969;-76
2021/03/07 07:45:14;;;;;;;16.23;10.43;;;;;;;1.76;60.44;99675.85;123432;1102;64892;-76
2021/03/07 07:47:56;;;;;;;11.60;9.30;;;;;;;1.79;58.78;99678.45;123371;1102;64889;-75
2021/03/07 07:52:56;;;;;;;12.33;9.10;;;;;;;1.91;59.57;99665.03;123838;1102;64921;-76
2021/03/07 07:55:44;;;;;;;15.43;9.83;;;;;;;1.91;58.47;99666.80;123383;1102;64962;-76
2021/03/07 07:58:34;;;;;;;15.97;11.00;;;;;;;1.95;58.97;99666.71;123370;1102;64863;-75
2021/03/07 08:01:01;;;;;;;13.30;10.33;;;;;;;2.02;58.00;99674.45;123360;1102;64939;-76
2021/03/07 08:03:40;;;;;;;14.70;10.67;;;;;;;2.05;59.14;99671.75;123360;1102;64837;-75
2021/03/07 08:06:39;;;;;;;12.80;10.23;;;;;;;2.13;58.50;99662.83;123382;1102;64989;-75
2021/03/07 08:09:33;;;;;;;14.37;10.73;;;;;;;2.22;57.62;99647.74;123355;1102;64909;-75
2021/03/07 08:12:00;;;;;;;14.47;10.03;;;;;;;2.27;58.46;99651.14;123517;1102;64962;-76
2021/03/07 08:14:35;;;;;;;14.63;10.47;;;;;;;2.30;57.05;99648.43;123816;1102;64860;-76
2021/03/07 08:17:02;;;;;;;11.40;8.60;;;;;;;2.34;57.13;99647.44;123361;1102;64920;-75
2021/03/07 08:19:44;;;;;;;15.77;10.67;;;;;;;2.38;58.24;99643.86;123413;1102;64994;-76
2021/03/07 08:22:10;;;;;;;19.93;11.03;;;;;;;2.47;57.94;99646.25;123766;1102;65017;-75
2021/03/07 08:24:58;;;;;;;13.90;9.75;;;;;;;2.54;57.95;99641.73;123802;1102;64892;-75
2021/03/07 08:27:39;;;;;;;13.07;9.07;;;;;;;2.57;57.20;99639.88;123413;1102;64889;-76
2021/03/07 08:30:14;;;;;;;19.33;9.87;;;;;;;2.62;57.14;99634.52;123430;1102;64888;-76
2021/03/07 08:32:43;;;;;;;16.83;11.03;;;;;;;2.67;57.24;99637.90;123413;1102;65212;-75
2021/03/07 08:35:24;;;;;;;16.03;11.67;;;;;;;2.73;56.62;99629.84;123358;1102;64835;-75
2021/03/07 08:38:14;;;;;;;15.17;11.43;;;;;;;2.83;57.35;99631.34;123435;1102;64923;-74
2021/03/07 08:40:44;;;;;;;13.72;10.28;;;;;;;2.87;56.74;99624.25;123374;1102;64834;-75
2021/03/07 08:43:37;;;;;;;18.57;12.13;;;;;;;2.89;57.08;99617.16;123347;1102;65051;-76
2021/03/07 08:46:12;;;;;;;13.95;10.75;;;;;;;2.93;56.77;99620.59;123388;1102;64947;-76
2021/03/07 08:48:41;;;;;;;12.90;10.20;;;;;;;2.95;56.66;99611.75;123548;1102;64943;-76
2021/03/07 08:51:09;;;;;;;14.17;11.03;;;;;;;3.01;55.97;99600.20;123799;1101;64881;-75
2021/03/07 08:53:41;;;;;;;13.17;9.20;;;;;;;3.04;55.77;99600.11;123579;1102;65428;-82
2021/03/07 08:56:09;;;;;;;14.87;10.83;;;;;;;3.10;57.13;99597.30;124084;1102;65374;-86
2021/03/07 09:06:44;;;;;;;14.83;10.63;;;;;;;3.20;54.67;99582.13;105392;1099;64780;-82
2021/03/07 09:09:19;;;;;;;15.77;11.07;;;;;;;3.20;55.56;99587.39;123968;1101;64885;-90
2021/03/07 09:11:50;;;;;;;12.90;10.30;;;;;;;3.25;55.68;99588.13;123621;1102;65090;-81
2021/03/07 09:14:38;;;;;;;14.17;10.97;;;;;;;3.30;55.14;99581.82;123983;1102;64882;-84
2021/03/07 09:17:08;;;;;;;13.40;10.37;;;;;;;3.35;54.57;99571.16;124040;1102;64888;-83
2021/03/07 09:19:40;;;;;;;14.97;10.87;;;;;;;3.43;55.40;99573.58;124031;1102;64784;-85
2021/03/07 09:22:18;;;;;;;14.77;10.23;;;;;;;3.54;55.83;99578.55;123663;1102;64905;-84
2021/03/07 09:25:07;;;;;;;11.67;8.90;;;;;;;3.58;55.70;99572.25;124081;1102;65026;-91
2021/03/07 09:27:42;;;;;;;12.70;10.13;;;;;;;3.57;55.56;99555.59;123772;1103;65218;-82
2021/03/07 09:30:11;;;;;;;10.10;7.80;;;;;;;3.57;54.93;99550.31;123783;1102;64895;-85
2021/03/07 09:32:43;;;;;;;12.67;9.50;;;;;;;3.57;55.33;99549.46;123887;1105;65311;-88
2021/03/07 09:35:30;;;;;;;11.97;9.17;;;;;;;3.56;56.00;99551.23;124006;1102;65074;-86
2021/03/07 09:38:06;;;;;;;12.47;9.80;;;;;;;3.56;55.72;99547.75;124061;1102;65407;-85
2021/03/07 09:40:42;;;;;;;11.90;10.00;;;;;;;3.64;55.42;99540.47;124066;1102;64937;-84
2021/03/07 09:43:12;;;;;;;9.60;8.23;;;;;;;3.70;55.44;99542.91;124079;1102;64908;-86
2021/03/07 09:45:43;;;;;;;10.15;7.85;;;;;;;3.74;55.44;99545.42;123980;1102;64857;-85
2021/03/07 09:48:11;;;;;;;9.40;8.23;;;;;;;3.83;55.47;99538.98;123825;1102;64991;-81
2021/03/07 09:50:40;;;;;;;11.55;9.40;;;;;;;3.89;54.87;99530.88;123993;1102;64971;-86
2021/03/07 09:53:07;;;;;;;11.38;9.15;;;;;;;3.92;54.20;99536.09;124066;1102;64905;-84
2021/03/07 09:55:35;;;;;;;10.30;8.40;;;;;;;3.95;54.44;99529.86;124035;1102;64879;-83
2021/03/07 09:58:04;;;;;;;11.45;9.50;;;;;;;3.94;54.65;99521.05;124112;1102;64988;-84
2021/03/07 10:00:36;;;;;;;11.80;8.50;;;;;;;4.00;54.24;99524.41;123964;1102;64854;-85
2021/03/07 10:03:03;;;;;;;9.55;7.65;;;;;;;4.14;53.56;99514.30;124085;1102;64838;-83
2021/03/07 10:05:29;;;;;;;10.53;8.13;;;;;;;4.25;52.66;99504.25;123653;1102;65019;-82
2021/03/07 10:07:56;;;;;;;11.43;8.70;;;;;;;4.34;53.83;99497.80;124034;1102;64886;-82
2021/03/07 10:10:25;;;;;;;9.93;8.77;;;;;;;4.43;53.04;99494.02;123915;1101;64879;-81
2021/03/07 10:12:57;;;;;;;12.73;9.00;;;;;;;4.51;52.74;99491.97;123987;1102;65148;-86
2021/03/07 10:15:30;;;;;;;11.47;9.17;;;;;;;4.50;52.41;99485.83;124346;1102;65008;-89
2021/03/07 10:18:01;;;;;;;10.87;8.60;;;;;;;4.53;51.16;99482.20;124289;1102;64978;-84
2021/03/07 10:20:38;;;;;;;12.53;9.43;;;;;;;4.61;51.72;99478.40;123694;1102;64927;-80
2021/03/07 10:23:05;;;;;;;12.00;9.30;;;;;;;4.62;50.22;99474.83;124328;1102;64914;-85
2021/03/07 10:25:36;;;;;;;10.57;7.30;;;;;;;4.67;50.59;99466.76;123956;1102;64988;-82
2021/03/07 10:28:28;;;;;;;10.53;8.57;;;;;;;4.75;49.65;99461.20;123631;1102;64991;-80
2021/03/07 10:31:05;;;;;;;12.40;8.80;;;;;;;4.73;50.72;99449.83;123590;1102;64966;-81
2021/03/07 10:33:32;;;;;;;11.33;9.10;;;;;;;4.81;50.87;99453.05;124023;1102;65368;-84
2021/03/07 10:36:02;;;;;;;12.30;9.77;;;;;;;4.78;50.46;99459.30;123937;1102;64940;-86
2021/03/07 10:38:30;;;;;;;14.17;8.43;;;;;;;4.81;50.51;99460.98;124369;1102;64943;-84
2021/03/07 10:40:57;;;;;;;13.30;9.13;;;;;;;4.94;50.94;99445.55;124075;1102;64888;-84
2021/03/07 10:43:24;;;;;;;9.93;7.53;;;;;;;5.03;50.13;99448.73;124100;1101;64902;-87
2021/03/07 10:45:51;;;;;;;12.67;8.00;;;;;;;5.02;50.39;99436.42;123951;1102;64886;-82
2021/03/07 10:48:17;;;;;;;9.90;7.80;;;;;;;5.05;48.95;99428.41;126417;1102;64010;-79
2021/03/07 10:50:46;;;;;;;10.70;7.30;;;;;;;5.13;50.48;99433.38;123939;1102;64981;-79
2021/03/07 10:53:14;;;;;;;9.10;6.97;;;;;;;5.25;49.02;99434.70;123769;1102;64892;-84
2021/03/07 10:55:48;;;;;;;9.20;6.13;;;;;;;5.32;49.01;99417.70;124007;1102;64886;-84
2021/03/07 10:58:14;;;;;;;7.23;6.20;;;;;;;5.40;47.67;99418.27;123912;1102;65367;-82
2021/03/07 11:00:41;;;;;;;7.47;5.53;;;;;;;5.49;47.79;99414.39;123528;1102;65349;-85
2021/03/07 11:03:08;;;;;;;7.07;5.70;;;;;;;5.59;49.33;99405.17;124048;1102;65132;-86
2021/03/07 11:05:34;;;;;;;6.47;5.00;;;;;;;5.71;47.12;99409.09;123819;1105;64911;-86
2021/03/07 11:08:01;;;;;;;7.13;4.97;;;;;;;5.68;47.32;99399.50;124023;1102;64934;-91
2021/03/07 11:10:27;;;;;;;8.00;5.65;;;;;;;5.68;46.66;99390.71;124032;1105;64979;-83
2021/03/07 11:12:54;;;;;;;5.53;4.63;;;;;;;5.65;46.75;99383.77;124057;1102;64920;-78
2021/03/07 11:15:23;;;;;;;6.40;5.67;;;;;;;5.63;45.06;99385.60;123505;1102;64995;-85
2021/03/07 11:17:50;;;;;;;8.03;5.43;;;;;;;5.61;44.21;99363.67;124131;1102;64952;-86
2021/03/07 11:20:17;;;;;;;6.30;5.70;;;;;;;5.59;46.38;99373.45;124355;1102;64933;-87
2021/03/07 11:22:43;;;;;;;6.70;5.43;;;;;;;5.69;44.58;99377.44;123969;1102;64997;-84
2021/03/07 11:25:10;;;;;;;7.10;5.10;;;;;;;5.73;46.06;99364.94;124174;1105;65227;-87
2021/03/07 11:27:37;;;;;;;6.80;5.35;;;;;;;5.76;46.40;99359.52;124253;1102;65064;-80
2021/03/07 11:30:06;;;;;;;5.80;5.20;;;;;;;5.80;44.29;99357.62;123911;1102;65279;-80
2021/03/07 11:32:33;;;;;;;5.47;4.90;;;;;;;5.74;44.32;99348.17;123925;1102;64905;-79
2021/03/07 11:34:59;;;;;;;5.77;4.83;;;;;;;5.70;44.02;99343.92;123482;1102;65006;-81
2021/03/07 11:37:26;;;;;;;6.47;5.13;;;;;;;5.73;45.79;99344.64;123683;1102;64991;-83
2021/03/07 11:39:52;;;;;;;6.97;5.90;;;;;;;5.79;45.28;99325.01;123934;1102;64991;-84
2021/03/07 11:42:19;;;;;;;6.20;5.15;;;;;;;5.84;44.70;99323.03;124081;1102;64888;-83